sensor_id;sensor_type;location;lat;lon;timestamp;P1;durP1;ratioP1;P2;durP2;ratioP2
5167;SDS011;2603;48.918;8.980;2023-01-05T00:01:13;1.50;;;0.80;;
5167;SDS011;2603;48.918;8.980;2023-01-05T00:03:39;1.73;;;1.10;;
5167;SDS011;2603;48.918;8.980;2023-01-05T00:06:09;1.60;;;0.70;;
5167;SDS011;2603;48.918;8.980;2023-01-05T00:08:36;3.63;;;1.10;;
5167;SDS011;2603;48.918;8.980;2023-01-05T00:11:03;1.60;;;0.70;;
5167;SDS011;2603;48.918;8.980;2023-01-05T00:13:49;2.47;;;0.80;;
5167;SDS011;2603;48.918;8.980;2023-01-05T00:16:34;1.10;;;0.60;;
5167;SDS011;2603;48.918;8.980;2023-01-05T00:19:18;1.43;;;0.73;;
5167;SDS011;2603;48.918;8.980;2023-01-05T00:22:04;1.47;;;0.77;;
5167;SDS011;2603;48.918;8.980;2023-01-05T00:24:53;1.20;;;0.70;;
5167;SDS011;2603;48.918;8.980;2023-01-05T00:27:20;1.20;;;0.50;;
5167;SDS011;2603;48.918;8.980;2023-01-05T00:29:48;2.17;;;1.00;;
5167;SDS011;2603;48.918;8.980;2023-01-05T00:32:14;1.80;;;1.20;;
5167;SDS011;2603;48.918;8.980;2023-01-05T00:34:41;2.07;;;1.10;;
5167;SDS011;2603;48.918;8.980;2023-01-05T00:37:07;2.00;;;0.77;;
5167;SDS011;2603;48.918;8.980;2023-01-05T00:39:34;2.00;;;0.73;;
5167;SDS011;2603;48.918;8.980;2023-01-05T00:42:00;1.97;;;0.63;;
5167;SDS011;2603;48.918;8.980;2023-01-05T00:44:27;1.53;;;0.70;;
5167;SDS011;2603;48.918;8.980;2023-01-05T00:46:54;1.03;;;0.50;;
5167;SDS011;2603;48.918;8.980;2023-01-05T00:49:21;1.03;;;0.50;;
5167;SDS011;2603;48.918;8.980;2023-01-05T00:51:47;1.20;;;0.50;;
5167;SDS011;2603;48.918;8.980;2023-01-05T00:54:14;1.00;;;0.50;;
5167;SDS011;2603;48.918;8.980;2023-01-05T00:56:41;1.20;;;0.50;;
5167;SDS011;2603;48.918;8.980;2023-01-05T00:59:08;1.10;;;0.50;;
5167;SDS011;2603;48.918;8.980;2023-01-05T01:01:35;1.00;;;0.50;;
5167;SDS011;2603;48.918;8.980;2023-01-05T01:04:02;1.00;;;0.50;;
5167;SDS011;2603;48.918;8.980;2023-01-05T01:06:29;1.00;;;0.40;;
5167;SDS011;2603;48.918;8.980;2023-01-05T01:08:57;1.00;;;0.40;;
5167;SDS011;2603;48.918;8.980;2023-01-05T01:11:23;1.10;;;0.50;;
5167;SDS011;2603;48.918;8.980;2023-01-05T01:13:50;1.20;;;0.50;;
5167;SDS011;2603;48.918;8.980;2023-01-05T01:16:16;1.10;;;0.50;;
5167;SDS011;2603;48.918;8.980;2023-01-05T01:18:43;1.00;;;0.50;;
5167;SDS011;2603;48.918;8.980;2023-01-05T01:21:11;1.00;;;0.40;;
5167;SDS011;2603;48.918;8.980;2023-01-05T01:23:37;1.00;;;0.40;;
5167;SDS011;2603;48.918;8.980;2023-01-05T01:26:04;1.10;;;0.50;;
5167;SDS011;2603;48.918;8.980;2023-01-05T01:28:32;1.03;;;0.50;;
5167;SDS011;2603;48.918;8.980;2023-01-05T01:30:58;0.90;;;0.40;;
5167;SDS011;2603;48.918;8.980;2023-01-05T01:33:25;0.90;;;0.40;;
5167;SDS011;2603;48.918;8.980;2023-01-05T01:35:52;1.03;;;0.50;;
5167;SDS011;2603;48.918;8.980;2023-01-05T01:38:20;1.10;;;0.50;;
5167;SDS011;2603;48.918;8.980;2023-01-05T01:40:48;1.40;;;0.50;;
5167;SDS011;2603;48.918;8.980;2023-01-05T01:43:16;1.00;;;0.50;;
5167;SDS011;2603;48.918;8.980;2023-01-05T01:45:45;5.43;;;0.73;;
5167;SDS011;2603;48.918;8.980;2023-01-05T01:48:13;1.37;;;0.60;;
5167;SDS011;2603;48.918;8.980;2023-01-05T01:50:42;1.20;;;0.50;;
5167;SDS011;2603;48.918;8.980;2023-01-05T01:53:13;1.00;;;0.50;;
5167;SDS011;2603;48.918;8.980;2023-01-05T01:55:43;3.33;;;0.60;;
5167;SDS011;2603;48.918;8.980;2023-01-05T01:58:10;1.37;;;0.70;;
5167;SDS011;2603;48.918;8.980;2023-01-05T02:00:39;1.10;;;0.50;;
5167;SDS011;2603;48.918;8.980;2023-01-05T02:03:06;1.10;;;0.50;;
5167;SDS011;2603;48.918;8.980;2023-01-05T02:05:33;1.20;;;0.50;;
5167;SDS011;2603;48.918;8.980;2023-01-05T02:08:01;2.03;;;0.70;;
5167;SDS011;2603;48.918;8.980;2023-01-05T02:10:32;1.00;;;0.50;;
5167;SDS011;2603;48.918;8.980;2023-01-05T02:13:09;1.10;;;0.50;;
5167;SDS011;2603;48.918;8.980;2023-01-05T02:15:44;1.00;;;0.50;;
5167;SDS011;2603;48.918;8.980;2023-01-05T02:18:19;0.90;;;0.40;;
5167;SDS011;2603;48.918;8.980;2023-01-05T02:21:05;1.00;;;0.50;;
5167;SDS011;2603;48.918;8.980;2023-01-05T02:23:54;1.00;;;0.50;;
5167;SDS011;2603;48.918;8.980;2023-01-05T02:30:04;1.00;;;0.50;;
5167;SDS011;2603;48.918;8.980;2023-01-05T02:32:53;0.97;;;0.40;;
5167;SDS011;2603;48.918;8.980;2023-01-05T02:35:22;1.10;;;0.57;;
5167;SDS011;2603;48.918;8.980;2023-01-05T02:37:55;1.10;;;0.57;;
5167;SDS011;2603;48.918;8.980;2023-01-05T02:40:25;1.00;;;0.40;;
5167;SDS011;2603;48.918;8.980;2023-01-05T02:42:57;1.00;;;0.40;;
5167;SDS011;2603;48.918;8.980;2023-01-05T02:45:25;1.10;;;0.40;;
5167;SDS011;2603;48.918;8.980;2023-01-05T02:47:58;1.00;;;0.40;;
5167;SDS011;2603;48.918;8.980;2023-01-05T02:50:25;1.83;;;0.60;;
5167;SDS011;2603;48.918;8.980;2023-01-05T02:52:58;2.60;;;0.40;;
5167;SDS011;2603;48.918;8.980;2023-01-05T02:55:29;1.10;;;0.50;;
5167;SDS011;2603;48.918;8.980;2023-01-05T02:57:59;2.33;;;0.50;;
5167;SDS011;2603;48.918;8.980;2023-01-05T03:00:29;0.90;;;0.40;;
5167;SDS011;2603;48.918;8.980;2023-01-05T03:03:00;1.07;;;0.53;;
5167;SDS011;2603;48.918;8.980;2023-01-05T03:05:32;1.00;;;0.50;;
5167;SDS011;2603;48.918;8.980;2023-01-05T03:08:03;1.00;;;0.50;;
5167;SDS011;2603;48.918;8.980;2023-01-05T03:10:41;1.00;;;0.40;;
5167;SDS011;2603;48.918;8.980;2023-01-05T03:13:30;1.10;;;0.50;;
5167;SDS011;2603;48.918;8.980;2023-01-05T03:16:14;1.83;;;0.50;;
5167;SDS011;2603;48.918;8.980;2023-01-05T03:18:47;1.00;;;0.43;;
5167;SDS011;2603;48.918;8.980;2023-01-05T03:21:32;1.20;;;0.50;;
5167;SDS011;2603;48.918;8.980;2023-01-05T03:24:16;1.20;;;0.60;;
5167;SDS011;2603;48.918;8.980;2023-01-05T03:27:02;1.00;;;0.50;;
5167;SDS011;2603;48.918;8.980;2023-01-05T03:29:47;1.37;;;0.57;;
5167;SDS011;2603;48.918;8.980;2023-01-05T03:32:32;1.00;;;0.40;;
5167;SDS011;2603;48.918;8.980;2023-01-05T03:35:19;1.10;;;0.50;;
5167;SDS011;2603;48.918;8.980;2023-01-05T03:37:56;1.00;;;0.50;;
5167;SDS011;2603;48.918;8.980;2023-01-05T03:40:28;2.00;;;0.70;;
5167;SDS011;2603;48.918;8.980;2023-01-05T03:42:56;1.10;;;0.50;;
5167;SDS011;2603;48.918;8.980;2023-01-05T03:45:23;3.43;;;0.80;;
5167;SDS011;2603;48.918;8.980;2023-01-05T03:47:51;1.10;;;0.50;;
5167;SDS011;2603;48.918;8.980;2023-01-05T03:50:25;0.90;;;0.40;;
5167;SDS011;2603;48.918;8.980;2023-01-05T03:52:52;1.10;;;0.50;;
5167;SDS011;2603;48.918;8.980;2023-01-05T03:55:19;1.10;;;0.50;;
5167;SDS011;2603;48.918;8.980;2023-01-05T03:57:49;2.20;;;0.60;;
5167;SDS011;2603;48.918;8.980;2023-01-05T04:00:16;0.97;;;0.43;;
5167;SDS011;2603;48.918;8.980;2023-01-05T04:02:53;3.67;;;0.50;;
5167;SDS011;2603;48.918;8.980;2023-01-05T04:05:21;1.10;;;0.50;;
5167;SDS011;2603;48.918;8.980;2023-01-05T04:07:49;1.00;;;0.50;;
5167;SDS011;2603;48.918;8.980;2023-01-05T04:10:16;1.00;;;0.50;;
5167;SDS011;2603;48.918;8.980;2023-01-05T04:12:42;1.10;;;0.50;;
5167;SDS011;2603;48.918;8.980;2023-01-05T04:15:11;1.00;;;0.40;;
5167;SDS011;2603;48.918;8.980;2023-01-05T04:17:37;0.93;;;0.40;;
5167;SDS011;2603;48.918;8.980;2023-01-05T04:20:04;1.10;;;0.50;;
5167;SDS011;2603;48.918;8.980;2023-01-05T04:22:32;1.00;;;0.50;;
5167;SDS011;2603;48.918;8.980;2023-01-05T04:25:01;1.20;;;0.50;;
5167;SDS011;2603;48.918;8.980;2023-01-05T04:27:29;1.43;;;0.50;;
5167;SDS011;2603;48.918;8.980;2023-01-05T04:29:56;1.10;;;0.60;;
5167;SDS011;2603;48.918;8.980;2023-01-05T04:32:22;1.10;;;0.50;;
5167;SDS011;2603;48.918;8.980;2023-01-05T04:34:49;1.00;;;0.50;;
5167;SDS011;2603;48.918;8.980;2023-01-05T04:37:19;2.03;;;0.50;;
5167;SDS011;2603;48.918;8.980;2023-01-05T04:39:45;1.20;;;0.50;;
5167;SDS011;2603;48.918;8.980;2023-01-05T04:42:14;2.53;;;0.50;;
5167;SDS011;2603;48.918;8.980;2023-01-05T04:44:43;1.20;;;0.50;;
5167;SDS011;2603;48.918;8.980;2023-01-05T04:47:09;4.20;;;0.63;;
5167;SDS011;2603;48.918;8.980;2023-01-05T04:49:39;0.90;;;0.40;;
5167;SDS011;2603;48.918;8.980;2023-01-05T04:52:07;1.00;;;0.60;;
5167;SDS011;2603;48.918;8.980;2023-01-05T04:54:34;1.00;;;0.43;;
5167;SDS011;2603;48.918;8.980;2023-01-05T04:57:03;1.27;;;0.50;;
5167;SDS011;2603;48.918;8.980;2023-01-05T04:59:37;1.00;;;0.50;;
5167;SDS011;2603;48.918;8.980;2023-01-05T05:02:03;1.00;;;0.40;;
5167;SDS011;2603;48.918;8.980;2023-01-05T05:04:32;1.00;;;0.40;;
5167;SDS011;2603;48.918;8.980;2023-01-05T05:07:00;1.00;;;0.40;;
5167;SDS011;2603;48.918;8.980;2023-01-05T05:09:30;1.00;;;0.40;;
5167;SDS011;2603;48.918;8.980;2023-01-05T05:11:58;1.10;;;0.50;;
5167;SDS011;2603;48.918;8.980;2023-01-05T05:14:24;1.00;;;0.50;;
5167;SDS011;2603;48.918;8.980;2023-01-05T05:16:55;1.10;;;0.60;;
5167;SDS011;2603;48.918;8.980;2023-01-05T05:19:22;1.00;;;0.40;;
5167;SDS011;2603;48.918;8.980;2023-01-05T05:21:49;1.50;;;0.60;;
5167;SDS011;2603;48.918;8.980;2023-01-05T05:24:16;0.90;;;0.40;;
5167;SDS011;2603;48.918;8.980;2023-01-05T05:26:44;1.13;;;0.50;;
5167;SDS011;2603;48.918;8.980;2023-01-05T05:29:12;1.10;;;0.50;;
5167;SDS011;2603;48.918;8.980;2023-01-05T05:31:38;1.37;;;0.70;;
5167;SDS011;2603;48.918;8.980;2023-01-05T05:34:06;2.20;;;0.60;;
5167;SDS011;2603;48.918;8.980;2023-01-05T05:36:33;1.57;;;0.70;;
5167;SDS011;2603;48.918;8.980;2023-01-05T05:39:01;1.50;;;0.70;;
5167;SDS011;2603;48.918;8.980;2023-01-05T05:41:27;2.20;;;1.03;;
5167;SDS011;2603;48.918;8.980;2023-01-05T05:43:54;2.20;;;0.70;;
5167;SDS011;2603;48.918;8.980;2023-01-05T05:46:24;2.63;;;0.87;;
5167;SDS011;2603;48.918;8.980;2023-01-05T05:48:51;3.03;;;0.90;;
5167;SDS011;2603;48.918;8.980;2023-01-05T05:51:19;3.00;;;0.77;;
5167;SDS011;2603;48.918;8.980;2023-01-05T05:53:45;3.47;;;1.00;;
5167;SDS011;2603;48.918;8.980;2023-01-05T05:56:12;3.13;;;0.93;;
5167;SDS011;2603;48.918;8.980;2023-01-05T05:58:38;3.23;;;1.10;;
5167;SDS011;2603;48.918;8.980;2023-01-05T06:01:05;3.57;;;0.87;;
5167;SDS011;2603;48.918;8.980;2023-01-05T06:03:31;1.57;;;0.77;;
5167;SDS011;2603;48.918;8.980;2023-01-05T06:05:58;4.40;;;1.17;;
5167;SDS011;2603;48.918;8.980;2023-01-05T06:08:27;2.37;;;1.10;;
5167;SDS011;2603;48.918;8.980;2023-01-05T06:10:53;5.93;;;1.27;;
5167;SDS011;2603;48.918;8.980;2023-01-05T06:13:20;3.43;;;1.17;;
5167;SDS011;2603;48.918;8.980;2023-01-05T06:15:47;5.07;;;1.43;;
5167;SDS011;2603;48.918;8.980;2023-01-05T06:18:13;6.17;;;1.27;;
5167;SDS011;2603;48.918;8.980;2023-01-05T06:20:40;6.13;;;1.63;;
5167;SDS011;2603;48.918;8.980;2023-01-05T06:23:07;11.87;;;1.50;;
5167;SDS011;2603;48.918;8.980;2023-01-05T06:25:35;9.30;;;1.47;;
5167;SDS011;2603;48.918;8.980;2023-01-05T06:28:01;4.63;;;1.37;;
5167;SDS011;2603;48.918;8.980;2023-01-05T06:30:28;3.10;;;0.93;;
5167;SDS011;2603;48.918;8.980;2023-01-05T06:32:55;1.33;;;0.80;;
5167;SDS011;2603;48.918;8.980;2023-01-05T06:35:21;7.47;;;1.77;;
5167;SDS011;2603;48.918;8.980;2023-01-05T06:37:47;7.10;;;1.53;;
5167;SDS011;2603;48.918;8.980;2023-01-05T06:40:14;5.33;;;1.37;;
5167;SDS011;2603;48.918;8.980;2023-01-05T06:42:42;4.60;;;1.10;;
5167;SDS011;2603;48.918;8.980;2023-01-05T06:45:09;2.93;;;0.97;;
5167;SDS011;2603;48.918;8.980;2023-01-05T06:47:37;5.53;;;1.30;;
5167;SDS011;2603;48.918;8.980;2023-01-05T06:50:04;7.60;;;1.67;;
5167;SDS011;2603;48.918;8.980;2023-01-05T06:52:31;3.10;;;1.17;;
5167;SDS011;2603;48.918;8.980;2023-01-05T06:55:00;4.13;;;1.47;;
5167;SDS011;2603;48.918;8.980;2023-01-05T06:57:27;5.23;;;1.17;;
5167;SDS011;2603;48.918;8.980;2023-01-05T06:59:55;3.73;;;1.60;;
5167;SDS011;2603;48.918;8.980;2023-01-05T07:02:21;3.43;;;1.00;;
5167;SDS011;2603;48.918;8.980;2023-01-05T07:04:48;8.13;;;2.73;;
5167;SDS011;2603;48.918;8.980;2023-01-05T07:07:14;6.53;;;1.47;;
5167;SDS011;2603;48.918;8.980;2023-01-05T07:09:41;6.30;;;1.43;;
5167;SDS011;2603;48.918;8.980;2023-01-05T07:12:09;3.27;;;1.23;;
5167;SDS011;2603;48.918;8.980;2023-01-05T07:14:35;6.80;;;1.50;;
5167;SDS011;2603;48.918;8.980;2023-01-05T07:17:03;8.50;;;1.63;;
5167;SDS011;2603;48.918;8.980;2023-01-05T07:19:30;7.10;;;1.23;;
5167;SDS011;2603;48.918;8.980;2023-01-05T07:21:56;3.57;;;1.10;;
5167;SDS011;2603;48.918;8.980;2023-01-05T07:24:23;4.77;;;1.30;;
5167;SDS011;2603;48.918;8.980;2023-01-05T07:26:49;9.57;;;1.30;;
5167;SDS011;2603;48.918;8.980;2023-01-05T07:29:16;6.17;;;1.40;;
5167;SDS011;2603;48.918;8.980;2023-01-05T07:31:42;6.73;;;1.40;;
5167;SDS011;2603;48.918;8.980;2023-01-05T07:34:12;4.80;;;1.40;;
5167;SDS011;2603;48.918;8.980;2023-01-05T07:36:39;8.30;;;1.90;;
5167;SDS011;2603;48.918;8.980;2023-01-05T07:39:05;8.47;;;1.97;;
5167;SDS011;2603;48.918;8.980;2023-01-05T07:41:32;7.60;;;1.43;;
5167;SDS011;2603;48.918;8.980;2023-01-05T07:43:58;7.50;;;1.80;;
5167;SDS011;2603;48.918;8.980;2023-01-05T07:46:25;3.13;;;1.33;;
5167;SDS011;2603;48.918;8.980;2023-01-05T07:48:51;4.63;;;1.67;;
5167;SDS011;2603;48.918;8.980;2023-01-05T07:51:20;3.07;;;1.23;;
5167;SDS011;2603;48.918;8.980;2023-01-05T07:53:46;17.20;;;1.43;;
5167;SDS011;2603;48.918;8.980;2023-01-05T07:56:13;7.23;;;1.63;;
5167;SDS011;2603;48.918;8.980;2023-01-05T07:58:40;8.00;;;1.60;;
5167;SDS011;2603;48.918;8.980;2023-01-05T08:01:07;7.23;;;1.70;;
5167;SDS011;2603;48.918;8.980;2023-01-05T08:03:35;4.67;;;1.27;;
5167;SDS011;2603;48.918;8.980;2023-01-05T08:06:02;6.17;;;1.60;;
5167;SDS011;2603;48.918;8.980;2023-01-05T08:08:30;9.90;;;1.83;;
5167;SDS011;2603;48.918;8.980;2023-01-05T08:10:57;4.77;;;1.20;;
5167;SDS011;2603;48.918;8.980;2023-01-05T08:13:23;9.90;;;1.70;;
5167;SDS011;2603;48.918;8.980;2023-01-05T08:16:07;5.90;;;1.53;;
5167;SDS011;2603;48.918;8.980;2023-01-05T08:18:34;6.17;;;1.50;;
5167;SDS011;2603;48.918;8.980;2023-01-05T08:21:00;7.83;;;1.80;;
5167;SDS011;2603;48.918;8.980;2023-01-05T08:23:28;7.03;;;2.67;;
5167;SDS011;2603;48.918;8.980;2023-01-05T08:25:57;8.37;;;2.03;;
5167;SDS011;2603;48.918;8.980;2023-01-05T08:28:28;13.57;;;1.40;;
5167;SDS011;2603;48.918;8.980;2023-01-05T08:30:58;10.63;;;2.37;;
5167;SDS011;2603;48.918;8.980;2023-01-05T08:33:26;10.17;;;2.73;;
5167;SDS011;2603;48.918;8.980;2023-01-05T08:35:52;6.83;;;1.67;;
5167;SDS011;2603;48.918;8.980;2023-01-05T08:38:19;9.63;;;2.00;;
5167;SDS011;2603;48.918;8.980;2023-01-05T08:40:47;9.03;;;2.00;;
5167;SDS011;2603;48.918;8.980;2023-01-05T08:43:13;9.87;;;2.00;;
5167;SDS011;2603;48.918;8.980;2023-01-05T08:45:40;8.20;;;1.87;;
5167;SDS011;2603;48.918;8.980;2023-01-05T08:48:07;5.33;;;1.53;;
5167;SDS011;2603;48.918;8.980;2023-01-05T08:50:34;7.10;;;2.30;;
5167;SDS011;2603;48.918;8.980;2023-01-05T08:53:02;10.67;;;1.93;;
5167;SDS011;2603;48.918;8.980;2023-01-05T08:55:29;10.33;;;1.83;;
5167;SDS011;2603;48.918;8.980;2023-01-05T08:57:57;8.60;;;2.00;;
5167;SDS011;2603;48.918;8.980;2023-01-05T09:00:23;8.83;;;1.60;;
5167;SDS011;2603;48.918;8.980;2023-01-05T09:02:50;12.33;;;2.43;;
5167;SDS011;2603;48.918;8.980;2023-01-05T09:05:16;7.37;;;1.57;;
5167;SDS011;2603;48.918;8.980;2023-01-05T09:07:44;10.90;;;2.00;;
5167;SDS011;2603;48.918;8.980;2023-01-05T09:10:10;14.47;;;2.27;;
5167;SDS011;2603;48.918;8.980;2023-01-05T09:12:37;12.57;;;2.40;;
5167;SDS011;2603;48.918;8.980;2023-01-05T09:15:06;9.40;;;2.07;;
5167;SDS011;2603;48.918;8.980;2023-01-05T09:17:33;12.03;;;2.07;;
5167;SDS011;2603;48.918;8.980;2023-01-05T09:20:01;14.20;;;2.37;;
5167;SDS011;2603;48.918;8.980;2023-01-05T09:22:29;7.00;;;1.80;;
5167;SDS011;2603;48.918;8.980;2023-01-05T09:24:55;5.70;;;1.90;;
5167;SDS011;2603;48.918;8.980;2023-01-05T09:27:22;10.07;;;2.07;;
5167;SDS011;2603;48.918;8.980;2023-01-05T09:29:49;9.63;;;2.53;;
5167;SDS011;2603;48.918;8.980;2023-01-05T09:32:17;11.27;;;2.40;;
5167;SDS011;2603;48.918;8.980;2023-01-05T09:34:43;13.80;;;3.50;;
5167;SDS011;2603;48.918;8.980;2023-01-05T09:37:10;7.57;;;1.97;;
5167;SDS011;2603;48.918;8.980;2023-01-05T09:39:36;9.73;;;2.53;;
5167;SDS011;2603;48.918;8.980;2023-01-05T09:42:04;11.17;;;4.17;;
5167;SDS011;2603;48.918;8.980;2023-01-05T09:44:32;8.87;;;2.53;;
5167;SDS011;2603;48.918;8.980;2023-01-05T09:47:02;10.73;;;2.70;;
5167;SDS011;2603;48.918;8.980;2023-01-05T09:49:32;15.07;;;3.57;;
5167;SDS011;2603;48.918;8.980;2023-01-05T09:51:59;13.27;;;1.80;;
5167;SDS011;2603;48.918;8.980;2023-01-05T09:54:28;22.37;;;3.53;;
5167;SDS011;2603;48.918;8.980;2023-01-05T09:56:57;18.83;;;3.17;;
5167;SDS011;2603;48.918;8.980;2023-01-05T09:59:25;21.10;;;3.30;;
5167;SDS011;2603;48.918;8.980;2023-01-05T10:01:54;17.57;;;3.17;;
5167;SDS011;2603;48.918;8.980;2023-01-05T10:04:22;10.47;;;2.23;;
5167;SDS011;2603;48.918;8.980;2023-01-05T10:06:51;13.60;;;2.67;;
5167;SDS011;2603;48.918;8.980;2023-01-05T10:09:20;13.93;;;3.10;;
5167;SDS011;2603;48.918;8.980;2023-01-05T10:12:04;8.00;;;2.37;;
5167;SDS011;2603;48.918;8.980;2023-01-05T10:14:55;9.53;;;2.40;;
5167;SDS011;2603;48.918;8.980;2023-01-05T10:17:25;8.73;;;2.13;;
5167;SDS011;2603;48.918;8.980;2023-01-05T10:19:53;10.77;;;2.73;;
5167;SDS011;2603;48.918;8.980;2023-01-05T10:22:25;18.17;;;2.87;;
5167;SDS011;2603;48.918;8.980;2023-01-05T10:24:58;11.33;;;2.37;;
5167;SDS011;2603;48.918;8.980;2023-01-05T10:27:28;13.23;;;3.70;;
5167;SDS011;2603;48.918;8.980;2023-01-05T10:30:01;16.13;;;2.93;;
5167;SDS011;2603;48.918;8.980;2023-01-05T10:32:33;11.97;;;2.40;;
5167;SDS011;2603;48.918;8.980;2023-01-05T10:35:07;10.43;;;2.77;;
5167;SDS011;2603;48.918;8.980;2023-01-05T10:37:50;8.90;;;3.30;;
5167;SDS011;2603;48.918;8.980;2023-01-05T10:40:24;10.37;;;2.60;;
5167;SDS011;2603;48.918;8.980;2023-01-05T10:43:02;11.30;;;3.87;;
5167;SDS011;2603;48.918;8.980;2023-01-05T10:45:35;17.20;;;3.07;;
5167;SDS011;2603;48.918;8.980;2023-01-05T10:48:03;14.00;;;4.37;;
5167;SDS011;2603;48.918;8.980;2023-01-05T10:50:37;17.23;;;3.33;;
5167;SDS011;2603;48.918;8.980;2023-01-05T10:53:08;11.40;;;2.50;;
5167;SDS011;2603;48.918;8.980;2023-01-05T10:55:42;10.20;;;2.37;;
5167;SDS011;2603;48.918;8.980;2023-01-05T10:58:20;9.80;;;3.50;;
5167;SDS011;2603;48.918;8.980;2023-01-05T11:00:47;11.30;;;3.63;;
5167;SDS011;2603;48.918;8.980;2023-01-05T11:03:14;21.27;;;3.53;;
5167;SDS011;2603;48.918;8.980;2023-01-05T11:05:52;14.03;;;2.80;;
5167;SDS011;2603;48.918;8.980;2023-01-05T11:08:20;11.43;;;2.90;;
5167;SDS011;2603;48.918;8.980;2023-01-05T11:10:49;25.83;;;3.93;;
5167;SDS011;2603;48.918;8.980;2023-01-05T11:13:18;12.87;;;3.40;;
5167;SDS011;2603;48.918;8.980;2023-01-05T11:15:52;11.13;;;3.30;;
5167;SDS011;2603;48.918;8.980;2023-01-05T11:18:22;21.13;;;3.50;;
5167;SDS011;2603;48.918;8.980;2023-01-05T11:21:03;15.83;;;3.33;;
5167;SDS011;2603;48.918;8.980;2023-01-05T11:23:33;14.07;;;3.17;;
5167;SDS011;2603;48.918;8.980;2023-01-05T11:26:10;23.53;;;3.57;;
5167;SDS011;2603;48.918;8.980;2023-01-05T11:28:37;13.10;;;3.00;;
5167;SDS011;2603;48.918;8.980;2023-01-05T11:31:04;12.97;;;2.63;;
5167;SDS011;2603;48.918;8.980;2023-01-05T11:33:32;9.87;;;2.33;;
5167;SDS011;2603;48.918;8.980;2023-01-05T11:36:00;15.40;;;3.20;;
5167;SDS011;2603;48.918;8.980;2023-01-05T11:38:29;12.47;;;2.67;;
5167;SDS011;2603;48.918;8.980;2023-01-05T11:40:58;17.90;;;3.07;;
5167;SDS011;2603;48.918;8.980;2023-01-05T11:43:26;10.33;;;3.60;;
5167;SDS011;2603;48.918;8.980;2023-01-05T11:45:55;15.47;;;2.70;;
5167;SDS011;2603;48.918;8.980;2023-01-05T11:48:24;7.10;;;2.33;;
5167;SDS011;2603;48.918;8.980;2023-01-05T11:50:54;14.43;;;3.23;;
5167;SDS011;2603;48.918;8.980;2023-01-05T11:53:23;17.07;;;2.90;;
5167;SDS011;2603;48.918;8.980;2023-01-05T11:56:01;25.53;;;3.43;;
5167;SDS011;2603;48.918;8.980;2023-01-05T11:58:32;9.23;;;2.57;;
5167;SDS011;2603;48.918;8.980;2023-01-05T12:01:03;20.50;;;4.73;;
5167;SDS011;2603;48.918;8.980;2023-01-05T12:06:40;11.10;;;3.17;;
5167;SDS011;2603;48.918;8.980;2023-01-05T12:09:18;25.67;;;3.03;;
5167;SDS011;2603;48.918;8.980;2023-01-05T12:11:52;14.00;;;2.47;;
5167;SDS011;2603;48.918;8.980;2023-01-05T12:14:30;13.63;;;3.50;;
5167;SDS011;2603;48.918;8.980;2023-01-05T12:17:07;12.73;;;3.03;;
5167;SDS011;2603;48.918;8.980;2023-01-05T12:19:44;12.80;;;3.10;;
5167;SDS011;2603;48.918;8.980;2023-01-05T12:25:24;18.53;;;3.27;;
5167;SDS011;2603;48.918;8.980;2023-01-05T12:28:05;14.90;;;3.40;;
5167;SDS011;2603;48.918;8.980;2023-01-05T12:30:42;13.47;;;2.63;;
5167;SDS011;2603;48.918;8.980;2023-01-05T12:33:25;11.43;;;2.80;;
5167;SDS011;2603;48.918;8.980;2023-01-05T12:36:02;14.57;;;3.23;;
5167;SDS011;2603;48.918;8.980;2023-01-05T12:38:45;18.20;;;3.00;;
5167;SDS011;2603;48.918;8.980;2023-01-05T12:41:32;14.27;;;3.60;;
5167;SDS011;2603;48.918;8.980;2023-01-05T12:44:11;12.00;;;2.80;;
5167;SDS011;2603;48.918;8.980;2023-01-05T12:46:48;14.13;;;2.10;;
5167;SDS011;2603;48.918;8.980;2023-01-05T12:49:20;15.27;;;2.93;;
5167;SDS011;2603;48.918;8.980;2023-01-05T12:51:51;13.40;;;4.23;;
5167;SDS011;2603;48.918;8.980;2023-01-05T12:54:21;12.50;;;3.50;;
5167;SDS011;2603;48.918;8.980;2023-01-05T12:56:57;16.67;;;3.40;;
5167;SDS011;2603;48.918;8.980;2023-01-05T12:59:29;17.33;;;3.67;;
5167;SDS011;2603;48.918;8.980;2023-01-05T13:02:00;15.27;;;2.77;;
5167;SDS011;2603;48.918;8.980;2023-01-05T13:04:33;8.90;;;2.63;;
5167;SDS011;2603;48.918;8.980;2023-01-05T13:07:04;8.43;;;2.80;;
5167;SDS011;2603;48.918;8.980;2023-01-05T13:09:32;12.23;;;3.27;;
5167;SDS011;2603;48.918;8.980;2023-01-05T13:12:01;9.67;;;2.90;;
5167;SDS011;2603;48.918;8.980;2023-01-05T13:14:32;13.10;;;3.23;;
5167;SDS011;2603;48.918;8.980;2023-01-05T13:17:02;13.47;;;3.90;;
5167;SDS011;2603;48.918;8.980;2023-01-05T13:19:31;15.97;;;3.53;;
5167;SDS011;2603;48.918;8.980;2023-01-05T13:22:03;17.10;;;3.37;;
5167;SDS011;2603;48.918;8.980;2023-01-05T13:24:32;11.03;;;2.23;;
5167;SDS011;2603;48.918;8.980;2023-01-05T13:27:01;18.87;;;2.87;;
5167;SDS011;2603;48.918;8.980;2023-01-05T13:29:29;15.47;;;2.87;;
5167;SDS011;2603;48.918;8.980;2023-01-05T13:32:07;16.73;;;3.40;;
5167;SDS011;2603;48.918;8.980;2023-01-05T13:34:57;13.30;;;3.00;;
5167;SDS011;2603;48.918;8.980;2023-01-05T13:37:41;10.53;;;2.33;;
5167;SDS011;2603;48.918;8.980;2023-01-05T13:40:20;10.13;;;2.80;;
5167;SDS011;2603;48.918;8.980;2023-01-05T13:46:00;15.07;;;3.10;;
5167;SDS011;2603;48.918;8.980;2023-01-05T13:48:42;9.60;;;2.90;;
5167;SDS011;2603;48.918;8.980;2023-01-05T13:51:40;14.77;;;2.70;;
5167;SDS011;2603;48.918;8.980;2023-01-05T13:54:15;13.10;;;2.60;;
5167;SDS011;2603;48.918;8.980;2023-01-05T13:56:42;17.30;;;3.20;;
5167;SDS011;2603;48.918;8.980;2023-01-05T13:59:15;25.20;;;3.13;;
5167;SDS011;2603;48.918;8.980;2023-01-05T14:01:47;15.43;;;2.97;;
5167;SDS011;2603;48.918;8.980;2023-01-05T14:04:17;17.17;;;3.10;;
5167;SDS011;2603;48.918;8.980;2023-01-05T14:06:45;15.13;;;2.40;;
5167;SDS011;2603;48.918;8.980;2023-01-05T14:09:13;17.67;;;2.73;;
5167;SDS011;2603;48.918;8.980;2023-01-05T14:14:56;12.63;;;2.30;;
5167;SDS011;2603;48.918;8.980;2023-01-05T14:20:33;21.33;;;3.17;;
5167;SDS011;2603;48.918;8.980;2023-01-05T14:23:01;13.50;;;3.53;;
5167;SDS011;2603;48.918;8.980;2023-01-05T14:25:46;13.23;;;3.47;;
5167;SDS011;2603;48.918;8.980;2023-01-05T14:28:16;19.77;;;3.50;;
5167;SDS011;2603;48.918;8.980;2023-01-05T14:30:47;13.70;;;3.00;;
5167;SDS011;2603;48.918;8.980;2023-01-05T14:33:15;16.13;;;4.10;;
5167;SDS011;2603;48.918;8.980;2023-01-05T14:35:44;26.90;;;4.63;;
5167;SDS011;2603;48.918;8.980;2023-01-05T14:38:15;27.77;;;4.20;;
5167;SDS011;2603;48.918;8.980;2023-01-05T14:40:44;25.30;;;4.60;;
5167;SDS011;2603;48.918;8.980;2023-01-05T14:46:01;15.20;;;3.47;;
5167;SDS011;2603;48.918;8.980;2023-01-05T14:48:31;20.10;;;3.80;;
5167;SDS011;2603;48.918;8.980;2023-01-05T14:51:07;12.93;;;3.30;;
5167;SDS011;2603;48.918;8.980;2023-01-05T14:53:40;17.03;;;3.60;;
5167;SDS011;2603;48.918;8.980;2023-01-05T14:56:19;26.17;;;4.30;;
5167;SDS011;2603;48.918;8.980;2023-01-05T14:58:52;16.73;;;4.53;;
5167;SDS011;2603;48.918;8.980;2023-01-05T15:01:36;20.27;;;3.73;;
5167;SDS011;2603;48.918;8.980;2023-01-05T15:04:06;21.27;;;5.03;;
5167;SDS011;2603;48.918;8.980;2023-01-05T15:06:39;14.63;;;2.83;;
5167;SDS011;2603;48.918;8.980;2023-01-05T15:09:35;22.63;;;4.50;;
5167;SDS011;2603;48.918;8.980;2023-01-05T15:12:27;16.50;;;4.20;;
5167;SDS011;2603;48.918;8.980;2023-01-05T15:15:14;22.07;;;3.27;;
5167;SDS011;2603;48.918;8.980;2023-01-05T15:17:58;11.37;;;3.43;;
5167;SDS011;2603;48.918;8.980;2023-01-05T15:20:49;11.10;;;2.80;;
5167;SDS011;2603;48.918;8.980;2023-01-05T15:23:35;13.00;;;2.73;;
5167;SDS011;2603;48.918;8.980;2023-01-05T15:26:15;18.50;;;3.73;;
5167;SDS011;2603;48.918;8.980;2023-01-05T15:28:59;14.73;;;3.60;;
5167;SDS011;2603;48.918;8.980;2023-01-05T15:31:37;15.73;;;3.33;;
5167;SDS011;2603;48.918;8.980;2023-01-05T15:34:13;12.43;;;3.03;;
5167;SDS011;2603;48.918;8.980;2023-01-05T15:36:45;14.80;;;3.37;;
5167;SDS011;2603;48.918;8.980;2023-01-05T15:39:23;12.97;;;3.47;;
5167;SDS011;2603;48.918;8.980;2023-01-05T15:41:51;10.63;;;3.23;;
5167;SDS011;2603;48.918;8.980;2023-01-05T15:44:20;18.40;;;5.13;;
5167;SDS011;2603;48.918;8.980;2023-01-05T15:46:46;29.50;;;10.93;;
5167;SDS011;2603;48.918;8.980;2023-01-05T15:49:18;23.43;;;9.70;;
5167;SDS011;2603;48.918;8.980;2023-01-05T15:51:50;34.67;;;10.27;;
5167;SDS011;2603;48.918;8.980;2023-01-05T15:54:21;58.50;;;19.83;;